Terminal Aerodrome Forecast
Issued by NWS

Home | Current Version | Previous Version | Text Only | Print | Product List | Glossary On
Versions: 1 2 3 4 5 6 7 8 9 10 11 12 13 14 15
882
FTUS42 KMLB 210539
TAFTIX
TAF
KTIX 210539Z 2106/2206 22010KT P6SM SCT250
     FM210800 00000KT 3SM BR SCT004 BKN008
      TEMPO 2110/2113 BKN004
     FM211400 21009KT P6SM FEW010 BKN250
     FM211800 20012KT P6SM SCT035 SCT150 BKN250
     FM220000 20004KT P6SM SCT150 BKN250
      AMD NOT SKED TIL 211200=

USA.gov is the U.S. government's official web portal to all federal, state and local government web resources and services.